EmailTwitter


Surface observations / United Kingdom / EGLL (03772)

Regions: Quebec | Canada | USA | Europe | France | UK | Elsewhere
Station
Display
Info & Location for EGLL (03772) | Help decoding METAR

Weather Conditions observed on 2018/08/21 at 17:50 UTC at LONDON/HEATHROW, UK (EGLL)

Temperature: 24.0 Celsius.

Dewpoint: 16.0 Celsius.

Relative Humidity: 61%

Humidex: 29.

Winds: South at 19 km/h or 10 knots.

Mean Sea level Pressure: 101.70 kilopascals.

Horizontal visibility: 6.21 statute miles or 9.94 kilometers.

Coded METAR:

EGLL 211750Z AUTO 19010KT 160V230 9999 NCD 24/16 Q1017 NOSIG=